createdAt,value
2022-09-12T00:00:00.370Z,7.10
2022-09-12T00:01:00.368Z,7.70
2022-09-12T00:02:00.411Z,7.20
2022-09-12T00:03:00.314Z,7.30
2022-09-12T00:04:00.273Z,7.20
2022-09-12T00:05:00.322Z,6.90
2022-09-12T00:06:00.246Z,7.10
2022-09-12T00:07:00.958Z,7.20
2022-09-12T00:08:00.268Z,6.50
2022-09-12T00:09:00.251Z,6.90
2022-09-12T00:10:00.220Z,6.50
2022-09-12T00:11:00.218Z,6.60
2022-09-12T00:12:00.158Z,6.20
2022-09-12T00:13:00.196Z,6.40
2022-09-12T00:14:00.204Z,6.10
2022-09-12T00:15:00.179Z,6.50
2022-09-12T00:16:00.152Z,6.80
2022-09-12T00:17:00.197Z,7.50
2022-09-12T00:18:00.089Z,8.10
2022-09-12T00:19:00.084Z,7.20
2022-09-12T00:20:00.090Z,7.40
2022-09-12T00:21:00.097Z,7.30
2022-09-12T00:22:00.064Z,7.40
2022-09-12T00:23:00.033Z,7.10
2022-09-12T00:24:00.026Z,7.10
2022-09-12T00:25:00.047Z,7.20
2022-09-12T00:26:00.035Z,7.30
2022-09-12T00:27:00.004Z,7.80
2022-09-12T00:28:00.008Z,7.40
2022-09-12T00:28:59.959Z,7.50
2022-09-12T00:29:59.927Z,7.10
2022-09-12T00:30:59.942Z,8.00
2022-09-12T00:32:00.083Z,8.00
2022-09-12T00:32:59.908Z,7.90
2022-09-12T00:33:59.922Z,7.60
2022-09-12T00:34:59.914Z,7.90
2022-09-12T00:35:59.868Z,7.80
2022-09-12T00:36:59.889Z,7.50
2022-09-12T00:37:59.908Z,7.00
2022-09-12T00:38:59.865Z,7.50
2022-09-12T00:39:59.850Z,7.60
2022-09-12T00:40:59.808Z,8.30
2022-09-12T00:41:59.836Z,7.90
2022-09-12T00:42:59.810Z,7.50
2022-09-12T00:43:59.834Z,7.30
2022-09-12T00:44:59.761Z,6.90
2022-09-12T00:45:59.790Z,7.30
2022-09-12T00:46:59.736Z,7.20
2022-09-12T00:47:59.705Z,7.40
2022-09-12T00:48:59.713Z,6.90
2022-09-12T00:49:59.781Z,6.70
2022-09-12T00:50:59.711Z,6.70
2022-09-12T00:51:59.658Z,7.30
2022-09-12T00:52:59.644Z,7.00
2022-09-12T00:53:59.672Z,6.60
2022-09-12T00:54:59.629Z,6.90
2022-09-12T00:55:59.656Z,7.10
2022-09-12T00:56:59.590Z,7.30
2022-09-12T00:57:59.644Z,6.90
2022-09-12T00:58:59.587Z,7.30
2022-09-12T00:59:59.557Z,6.60
2022-09-12T01:00:59.709Z,7.30
2022-09-12T01:01:59.627Z,7.00
2022-09-12T01:02:59.535Z,7.40
2022-09-12T01:03:59.487Z,7.60
2022-09-12T01:04:59.485Z,7.00
2022-09-12T01:05:59.470Z,7.50
2022-09-12T01:06:59.478Z,7.90
2022-09-12T01:07:59.477Z,7.70
2022-09-12T01:08:59.480Z,7.50
2022-09-12T01:09:59.404Z,7.30
2022-09-12T01:10:59.404Z,7.70
2022-09-12T01:11:59.412Z,7.40
2022-09-12T01:12:59.411Z,7.70
2022-09-12T01:13:59.436Z,7.20
2022-09-12T01:14:59.368Z,7.00
2022-09-12T01:16:00.777Z,7.10
2022-09-12T01:16:59.382Z,7.00
2022-09-12T01:17:59.310Z,7.20
2022-09-12T01:18:59.313Z,6.50
2022-09-12T01:19:59.327Z,7.10
2022-09-12T01:20:59.319Z,6.30
2022-09-12T01:21:59.274Z,6.00
2022-09-12T01:22:59.806Z,6.10
2022-09-12T01:23:59.306Z,6.40
2022-09-12T01:24:59.270Z,5.80
2022-09-12T01:25:59.205Z,5.90
2022-09-12T01:26:59.215Z,6.10
2022-09-12T01:27:59.219Z,6.20
2022-09-12T01:28:59.195Z,6.10
2022-09-12T01:29:59.187Z,6.00
2022-09-12T01:30:59.171Z,6.10
2022-09-12T01:31:59.184Z,6.10
2022-09-12T01:32:59.122Z,6.00
2022-09-12T01:33:59.120Z,5.80
2022-09-12T01:34:59.157Z,6.60
2022-09-12T01:35:59.142Z,6.90
2022-09-12T01:36:59.107Z,6.70
2022-09-12T01:37:59.069Z,6.40
2022-09-12T01:38:59.085Z,6.50
2022-09-12T01:39:59.087Z,7.20
2022-09-12T01:40:59.033Z,6.90
2022-09-12T01:41:59.069Z,6.90
2022-09-12T01:42:59.033Z,7.30
2022-09-12T01:43:58.960Z,7.10
2022-09-12T01:44:59.516Z,7.00
2022-09-12T01:45:59.012Z,6.50
2022-09-12T01:46:58.963Z,7.30
2022-09-12T01:47:58.976Z,6.90
2022-09-12T01:48:58.985Z,7.30
2022-09-12T01:49:58.917Z,7.10
2022-09-12T01:50:58.958Z,6.70
2022-09-12T01:51:58.891Z,7.40
2022-09-12T01:52:58.946Z,6.70
2022-09-12T01:53:58.851Z,6.70
2022-09-12T01:54:58.936Z,6.80
2022-09-12T01:55:58.893Z,6.70
2022-09-12T01:56:58.826Z,6.90
2022-09-12T01:57:58.880Z,7.20
2022-09-12T01:58:59.303Z,7.30
2022-09-12T01:59:58.760Z,7.10
2022-09-12T02:00:58.849Z,7.40
2022-09-12T02:01:58.798Z,6.60
2022-09-12T02:02:58.730Z,7.60
2022-09-12T02:03:58.741Z,7.00
2022-09-12T02:04:59.304Z,6.50
2022-09-12T02:05:58.738Z,6.80
2022-09-12T02:06:58.672Z,7.30
2022-09-12T02:07:58.681Z,7.00
2022-09-12T02:08:58.707Z,7.50
2022-09-12T02:09:58.668Z,7.20
2022-09-12T02:10:58.627Z,7.60
2022-09-12T02:11:58.616Z,7.10
2022-09-12T02:12:58.602Z,7.10
2022-09-12T02:13:58.590Z,7.10
2022-09-12T02:14:58.625Z,7.90
2022-09-12T02:15:58.561Z,7.40
2022-09-12T02:16:58.560Z,7.10
2022-09-12T02:17:58.563Z,7.60
2022-09-12T02:18:58.652Z,7.20
2022-09-12T02:19:58.500Z,7.60
2022-09-12T02:20:58.522Z,7.40
2022-09-12T02:21:58.520Z,7.00
2022-09-12T02:22:58.509Z,6.90
2022-09-12T02:23:58.460Z,7.10
2022-09-12T02:24:58.466Z,7.40
2022-09-12T02:25:58.422Z,7.10
2022-09-12T02:26:58.560Z,6.50
2022-09-12T02:27:58.466Z,6.70
2022-09-12T02:28:58.401Z,7.10
2022-09-12T02:29:58.400Z,7.00
2022-09-12T02:30:58.564Z,7.40
2022-09-12T02:31:58.881Z,7.60
2022-09-12T02:32:58.370Z,7.30
2022-09-12T02:33:58.325Z,7.10
2022-09-12T02:34:58.314Z,6.80
2022-09-12T02:35:58.290Z,6.60
2022-09-12T02:36:58.359Z,7.40
2022-09-12T02:37:58.286Z,6.90
2022-09-12T02:38:58.338Z,7.50
2022-09-12T02:39:58.316Z,7.10
2022-09-12T02:40:58.226Z,6.80
2022-09-12T02:41:58.204Z,7.20
2022-09-12T02:42:58.224Z,7.50
2022-09-12T02:43:58.183Z,6.70
2022-09-12T02:44:58.227Z,7.60
2022-09-12T02:45:58.313Z,7.70
2022-09-12T02:46:58.164Z,8.10
2022-09-12T02:47:58.169Z,7.20
2022-09-12T02:48:58.139Z,7.10
2022-09-12T02:49:58.141Z,7.60
2022-09-12T02:50:58.094Z,8.00
2022-09-12T02:51:58.105Z,6.90
2022-09-12T02:52:58.145Z,7.30
2022-09-12T02:53:58.045Z,7.80
2022-09-12T02:54:58.064Z,7.30
2022-09-12T02:55:58.124Z,6.90
2022-09-12T02:56:58.049Z,7.50
2022-09-12T02:57:58.016Z,7.70
2022-09-12T02:58:58.059Z,7.00
2022-09-12T02:59:57.991Z,7.30
2022-09-12T03:00:58.087Z,8.20
2022-09-12T03:01:58.140Z,7.60
2022-09-12T03:02:57.956Z,7.30
2022-09-12T03:03:58.049Z,7.70
2022-09-12T03:04:57.939Z,8.00
2022-09-12T03:05:57.924Z,7.60
2022-09-12T03:06:57.946Z,7.70
2022-09-12T03:07:57.929Z,7.90
2022-09-12T03:08:57.863Z,7.50
2022-09-12T03:09:57.908Z,7.20
2022-09-12T03:10:57.846Z,7.00
2022-09-12T03:11:57.883Z,7.40
2022-09-12T03:12:57.815Z,7.60
2022-09-12T03:13:57.849Z,7.80
2022-09-12T03:14:57.811Z,7.50
2022-09-12T03:15:57.755Z,7.30
2022-09-12T03:16:57.789Z,7.70
2022-09-12T03:17:57.824Z,7.70
2022-09-12T03:18:57.737Z,7.80
2022-09-12T03:19:57.807Z,7.60
2022-09-12T03:20:57.725Z,7.80
2022-09-12T03:21:57.730Z,7.00
2022-09-12T03:22:57.747Z,7.90
2022-09-12T03:23:57.672Z,7.40
2022-09-12T03:24:57.659Z,7.90
2022-09-12T03:25:58.386Z,7.40
2022-09-12T03:26:57.704Z,7.00
2022-09-12T03:27:57.628Z,6.90
2022-09-12T03:28:57.610Z,7.00
2022-09-12T03:29:57.622Z,7.90
2022-09-12T03:30:57.688Z,7.40
2022-09-12T03:31:57.643Z,8.20
2022-09-12T03:32:57.556Z,7.70
2022-09-12T03:33:57.544Z,7.20
2022-09-12T03:34:57.552Z,7.30
2022-09-12T03:35:57.505Z,7.30
2022-09-12T03:36:57.481Z,7.70
2022-09-12T03:37:57.648Z,7.70
2022-09-12T03:38:57.503Z,7.20
2022-09-12T03:39:57.506Z,8.10
2022-09-12T03:40:57.481Z,7.40
2022-09-12T03:41:57.449Z,7.00
2022-09-12T03:42:57.512Z,7.50
2022-09-12T03:43:57.459Z,7.20
2022-09-12T03:44:57.386Z,8.50
2022-09-12T03:45:57.406Z,7.50
2022-09-12T03:46:57.448Z,7.60
2022-09-12T03:47:57.408Z,8.00
2022-09-12T03:48:57.346Z,7.60
2022-09-12T03:49:57.416Z,7.60
2022-09-12T03:50:57.386Z,7.40
2022-09-12T03:51:57.296Z,7.20
2022-09-12T03:52:57.300Z,6.90
2022-09-12T03:53:57.284Z,7.00
2022-09-12T03:54:57.271Z,7.10
2022-09-12T03:55:57.349Z,7.00
2022-09-12T03:56:57.221Z,6.70
2022-09-12T03:57:57.224Z,6.50
2022-09-12T03:58:57.217Z,6.50
2022-09-12T03:59:57.263Z,6.90
2022-09-12T04:00:57.221Z,6.80
2022-09-12T04:01:57.317Z,7.00
2022-09-12T04:02:57.196Z,6.80
2022-09-12T04:03:57.222Z,6.90
2022-09-12T04:04:57.144Z,7.10
2022-09-12T04:05:57.142Z,7.60
2022-09-12T04:06:57.133Z,7.80
2022-09-12T04:07:57.086Z,7.30
2022-09-12T04:08:57.877Z,7.40
2022-09-12T04:09:57.086Z,7.70
2022-09-12T04:10:57.075Z,7.30
2022-09-12T04:11:57.811Z,8.10
2022-09-12T04:12:57.088Z,8.10
2022-09-12T04:13:57.041Z,7.70
2022-09-12T04:14:56.992Z,7.50
2022-09-12T04:15:57.025Z,8.00
2022-09-12T04:16:56.954Z,8.10
2022-09-12T04:17:56.986Z,7.30
2022-09-12T04:18:57.008Z,8.00
2022-09-12T04:19:56.936Z,7.60
2022-09-12T04:20:56.939Z,7.80
2022-09-12T04:21:56.918Z,7.30
2022-09-12T04:22:56.921Z,7.40
2022-09-12T04:23:57.225Z,8.00
2022-09-12T04:24:56.855Z,8.00
2022-09-12T04:25:56.859Z,7.50
2022-09-12T04:26:56.833Z,8.00
2022-09-12T04:27:56.911Z,8.10
2022-09-12T04:28:56.772Z,8.20
2022-09-12T04:29:56.831Z,8.10
2022-09-12T04:30:56.874Z,7.60
2022-09-12T04:31:56.717Z,7.80
2022-09-12T04:32:56.696Z,7.90
2022-09-12T04:33:56.778Z,7.90
2022-09-12T04:34:56.694Z,8.40
2022-09-12T04:35:56.722Z,7.60
2022-09-12T04:36:56.655Z,7.70
2022-09-12T04:37:56.661Z,7.70
2022-09-12T04:38:56.626Z,7.30
2022-09-12T04:39:56.648Z,8.00
2022-09-12T04:40:56.593Z,7.90
2022-09-12T04:41:57.009Z,7.40
2022-09-12T04:42:56.596Z,7.70
2022-09-12T04:43:56.580Z,8.20
2022-09-12T04:44:56.575Z,12.50
2022-09-12T04:45:56.640Z,10.00
2022-09-12T04:46:56.608Z,9.10
2022-09-12T04:49:13.099Z,7.40
2022-09-12T04:50:14.061Z,7.30
2022-09-12T04:51:14.057Z,8.40
2022-09-12T04:52:14.056Z,8.30
2022-09-12T04:53:14.065Z,7.60
2022-09-12T04:54:14.089Z,8.20
2022-09-12T04:55:14.131Z,8.00
2022-09-12T04:56:13.990Z,8.10
2022-09-12T04:57:13.956Z,8.10
2022-09-12T04:58:13.959Z,8.20
2022-09-12T04:59:14.065Z,8.20
2022-09-12T05:00:13.931Z,7.60
2022-09-12T05:01:13.961Z,8.10
2022-09-12T05:02:13.947Z,8.00
2022-09-12T05:03:13.879Z,7.30
2022-09-12T05:04:13.901Z,8.30
2022-09-12T05:05:13.977Z,8.20
2022-09-12T05:06:13.861Z,8.00
2022-09-12T05:07:13.835Z,8.20
2022-09-12T05:08:13.826Z,8.20
2022-09-12T05:09:13.823Z,7.80
2022-09-12T05:10:14.961Z,7.50
2022-09-12T05:11:13.834Z,8.20
2022-09-12T05:12:13.811Z,8.10
2022-09-12T05:13:13.750Z,7.80
2022-09-12T05:14:13.758Z,8.10
2022-09-12T05:15:13.760Z,8.70
2022-09-12T05:16:13.844Z,8.10
2022-09-12T05:17:13.725Z,8.70
2022-09-12T05:18:13.793Z,8.10
2022-09-12T05:19:14.516Z,8.00
2022-09-12T05:20:13.688Z,8.50
2022-09-12T05:21:13.644Z,8.10
2022-09-12T05:22:13.706Z,8.30
2022-09-12T05:23:13.606Z,8.40
2022-09-12T05:24:13.627Z,8.00
2022-09-12T05:25:13.586Z,7.90
2022-09-12T05:26:13.632Z,7.90
2022-09-12T05:27:13.556Z,8.50
2022-09-12T05:28:13.596Z,7.90
2022-09-12T05:29:13.638Z,7.60
2022-09-12T05:30:13.524Z,8.70
2022-09-12T05:31:13.508Z,7.70
2022-09-12T05:32:13.553Z,7.90
2022-09-12T05:33:13.492Z,7.60
2022-09-12T05:34:13.509Z,7.70
2022-09-12T05:35:13.452Z,7.50
2022-09-12T05:36:13.448Z,7.60
2022-09-12T05:37:13.428Z,7.70
2022-09-12T05:38:13.424Z,7.40
2022-09-12T05:39:13.954Z,7.50
2022-09-12T05:40:13.460Z,8.10
2022-09-12T05:41:17.528Z,7.30
2022-09-12T05:42:13.380Z,8.00
2022-09-12T05:43:13.486Z,8.10
2022-09-12T05:44:13.370Z,7.50
2022-09-12T05:45:13.324Z,6.90
2022-09-12T05:46:13.409Z,7.60
2022-09-12T05:47:13.329Z,7.50
2022-09-12T05:48:13.287Z,7.80
2022-09-12T05:49:13.291Z,8.10
2022-09-12T05:50:13.272Z,7.80
2022-09-12T05:51:13.241Z,7.60
2022-09-12T05:52:13.239Z,8.40
2022-09-12T05:53:13.216Z,8.10
2022-09-12T05:54:13.250Z,8.70
2022-09-12T05:55:13.192Z,8.70
2022-09-12T05:56:13.189Z,8.70
2022-09-12T05:57:13.227Z,8.60
2022-09-12T05:58:13.279Z,8.90
2022-09-12T05:59:13.147Z,9.20
2022-09-12T06:00:13.217Z,8.80
2022-09-12T06:01:13.163Z,8.60
2022-09-12T06:02:13.209Z,8.60
2022-09-12T06:03:13.118Z,8.70
2022-09-12T06:04:13.076Z,8.30
2022-09-12T06:05:13.050Z,8.70
2022-09-12T06:06:13.058Z,9.10
2022-09-12T06:07:13.020Z,8.60
2022-09-12T06:08:13.090Z,8.10
2022-09-12T06:09:12.994Z,8.10
2022-09-12T06:10:13.016Z,8.60
2022-09-12T06:11:12.972Z,8.10
2022-09-12T06:12:12.979Z,8.20
2022-09-12T06:13:12.940Z,8.30
2022-09-12T06:14:13.074Z,8.30
2022-09-12T06:15:12.918Z,8.00
2022-09-12T06:16:12.940Z,8.70
2022-09-12T06:17:12.893Z,7.80
2022-09-12T06:18:13.012Z,7.70
2022-09-12T06:19:12.889Z,7.90
2022-09-12T06:20:12.904Z,7.60
2022-09-12T06:21:12.884Z,7.80
2022-09-12T06:22:12.838Z,7.90
2022-09-12T06:23:12.811Z,7.70
2022-09-12T06:24:12.848Z,7.70
2022-09-12T06:25:12.805Z,8.10
2022-09-12T06:26:12.801Z,7.20
2022-09-12T06:27:12.766Z,8.00
2022-09-12T06:28:12.767Z,7.40
2022-09-12T06:29:12.761Z,8.00
2022-09-12T06:30:12.759Z,8.30
2022-09-12T06:31:12.836Z,7.30
2022-09-12T06:32:12.725Z,6.80
2022-09-12T06:33:12.669Z,8.00
2022-09-12T06:34:12.673Z,7.50
2022-09-12T06:35:12.724Z,7.30
2022-09-12T06:36:12.862Z,7.20
2022-09-12T06:37:12.619Z,8.00
2022-09-12T06:38:12.651Z,8.00
2022-09-12T06:39:12.644Z,7.60
2022-09-12T06:40:12.669Z,8.10
2022-09-12T06:41:12.603Z,7.70
2022-09-12T06:42:12.627Z,7.80
2022-09-12T06:43:12.532Z,7.90
2022-09-12T06:44:12.539Z,7.50
2022-09-12T06:45:12.532Z,8.10
2022-09-12T06:46:12.657Z,8.00
2022-09-12T06:47:12.493Z,7.40
2022-09-12T06:48:13.129Z,7.90
2022-09-12T06:49:12.513Z,7.20
2022-09-12T06:50:12.481Z,7.90
2022-09-12T06:51:12.521Z,7.40
2022-09-12T06:52:12.439Z,8.10
2022-09-12T06:53:12.450Z,8.10
2022-09-12T06:54:12.439Z,7.00
2022-09-12T06:55:16.215Z,7.70
2022-09-12T06:56:12.410Z,7.80
2022-09-12T06:57:12.360Z,7.70
2022-09-12T06:58:12.363Z,6.80
2022-09-12T06:59:12.382Z,7.70
2022-09-12T07:00:12.326Z,6.60
2022-09-12T07:01:12.383Z,7.10
2022-09-12T07:02:12.431Z,6.70
2022-09-12T07:03:12.277Z,7.50
2022-09-12T07:04:12.318Z,7.30
2022-09-12T07:05:12.251Z,7.70
2022-09-12T07:06:12.441Z,6.70
2022-09-12T07:07:12.224Z,7.10
2022-09-12T07:08:12.221Z,6.30
2022-09-12T07:09:12.242Z,7.20
2022-09-12T07:10:12.260Z,6.70
2022-09-12T07:11:12.163Z,6.50
2022-09-12T07:12:12.164Z,7.20
2022-09-12T07:13:12.180Z,6.80
2022-09-12T07:14:12.172Z,6.70
2022-09-12T07:15:12.117Z,6.50
2022-09-12T07:16:15.984Z,7.40
2022-09-12T07:17:12.197Z,6.70
2022-09-12T07:18:12.092Z,6.60
2022-09-12T07:19:12.179Z,6.10
2022-09-12T07:20:12.106Z,6.10
2022-09-12T07:21:12.034Z,6.50
2022-09-12T07:22:12.038Z,6.50
2022-09-12T07:23:12.063Z,6.20
2022-09-12T07:24:12.006Z,6.40
2022-09-12T07:25:12.543Z,6.30
2022-09-12T07:26:11.990Z,5.80
2022-09-12T07:27:12.018Z,6.40
2022-09-12T07:28:12.122Z,5.80
2022-09-12T07:29:36.055Z,6.00
2022-09-12T07:30:12.032Z,6.10
2022-09-12T07:31:12.021Z,5.70
2022-09-12T07:32:11.990Z,5.80
2022-09-12T07:33:11.882Z,6.40
2022-09-12T07:34:11.880Z,5.90
2022-09-12T07:35:11.870Z,6.10
2022-09-12T07:36:11.856Z,5.90
2022-09-12T07:37:11.890Z,5.90
2022-09-12T07:38:11.827Z,6.20
2022-09-12T07:39:11.832Z,5.70
2022-09-12T07:40:11.837Z,5.90
2022-09-12T07:41:11.806Z,6.20
2022-09-12T07:42:11.787Z,6.70
2022-09-12T07:43:11.783Z,5.90
2022-09-12T07:44:11.795Z,5.50
2022-09-12T07:45:11.722Z,5.40
2022-09-12T07:46:11.818Z,5.70
2022-09-12T07:47:11.688Z,6.10
2022-09-12T07:48:11.716Z,5.60
2022-09-12T07:49:11.689Z,5.80
2022-09-12T07:50:11.681Z,5.80
2022-09-12T07:51:11.639Z,5.50
2022-09-12T07:52:11.647Z,5.70
2022-09-12T07:53:11.667Z,5.90
2022-09-12T07:54:11.652Z,5.80
2022-09-12T07:55:11.578Z,5.40
2022-09-12T07:56:11.589Z,5.10
2022-09-12T07:57:11.595Z,5.40
2022-09-12T07:58:11.557Z,5.30
2022-09-12T07:59:11.533Z,5.50
2022-09-12T08:00:11.631Z,5.70
2022-09-12T08:01:11.552Z,5.30
2022-09-12T08:02:16.065Z,5.30
2022-09-12T08:03:11.499Z,5.20
2022-09-12T08:04:11.586Z,5.10
2022-09-12T08:05:11.452Z,4.70
2022-09-12T08:06:11.497Z,4.80
2022-09-12T08:07:11.447Z,4.60
2022-09-12T08:08:11.427Z,5.40
2022-09-12T08:09:11.413Z,4.80
2022-09-12T08:10:11.502Z,5.00
2022-09-12T08:11:11.498Z,4.80
2022-09-12T08:12:11.459Z,4.70
2022-09-12T08:13:11.346Z,5.10
2022-09-12T08:14:11.367Z,4.80
2022-09-12T08:15:11.315Z,4.70
2022-09-12T08:16:11.388Z,4.90
2022-09-12T08:17:11.314Z,4.80
2022-09-12T08:18:11.332Z,4.90
2022-09-12T08:19:11.278Z,4.50
2022-09-12T08:20:11.266Z,4.20
2022-09-12T08:21:11.276Z,4.80
2022-09-12T08:22:11.246Z,4.60
2022-09-12T08:23:11.234Z,4.20
2022-09-12T08:24:11.256Z,4.30
2022-09-12T08:25:11.184Z,4.40
2022-09-12T08:26:11.201Z,4.90
2022-09-12T08:27:11.158Z,4.50
2022-09-12T08:28:11.168Z,4.40
2022-09-12T08:29:11.141Z,4.50
2022-09-12T08:30:11.296Z,4.00
2022-09-12T08:31:11.253Z,4.00
2022-09-12T08:32:11.111Z,4.00
2022-09-12T08:33:11.093Z,4.40
2022-09-12T08:34:11.133Z,4.30
2022-09-12T08:35:11.067Z,4.20
2022-09-12T08:36:11.157Z,4.10
2022-09-12T08:37:11.038Z,4.50
2022-09-12T08:38:11.096Z,4.20
2022-09-12T08:39:11.013Z,4.10
2022-09-12T08:40:11.028Z,4.00
2022-09-12T08:41:10.986Z,4.10
2022-09-12T08:43:10.973Z,4.40
2022-09-12T08:44:10.986Z,3.80
2022-09-12T08:45:10.932Z,4.00
2022-09-12T08:46:10.975Z,4.30
2022-09-12T08:47:10.937Z,3.90
2022-09-12T08:48:10.874Z,4.10
2022-09-12T08:49:10.887Z,4.20
2022-09-12T08:50:10.874Z,4.10
2022-09-12T08:51:10.860Z,3.70
2022-09-12T08:52:10.910Z,4.00
2022-09-12T08:53:10.833Z,4.00
2022-09-12T08:54:10.795Z,4.30
2022-09-12T08:55:10.905Z,3.90
2022-09-12T08:56:10.772Z,3.60
2022-09-12T08:57:10.784Z,3.90
2022-09-12T08:58:10.846Z,4.10
2022-09-12T08:59:10.750Z,4.30
2022-09-12T09:00:10.726Z,3.50
2022-09-12T09:01:10.851Z,3.80
2022-09-12T09:02:10.750Z,4.00
2022-09-12T09:03:10.753Z,3.70
2022-09-12T09:04:10.699Z,3.40
2022-09-12T09:05:10.698Z,3.60
2022-09-12T09:06:10.798Z,3.50
2022-09-12T09:07:10.699Z,3.70
2022-09-12T09:08:10.708Z,3.60
2022-09-12T09:09:10.623Z,3.80
2022-09-12T09:10:10.616Z,3.80
2022-09-12T09:11:10.590Z,3.60
2022-09-12T09:12:10.571Z,3.60
2022-09-12T09:13:10.616Z,3.70
2022-09-12T09:14:10.544Z,3.70
2022-09-12T09:15:10.552Z,3.30
2022-09-12T09:16:10.548Z,3.30
2022-09-12T09:17:10.605Z,3.50
2022-09-12T09:18:10.501Z,3.70
2022-09-12T09:19:10.553Z,3.80
2022-09-12T09:20:10.474Z,3.50
2022-09-12T09:21:10.556Z,3.40
2022-09-12T09:22:10.456Z,3.20
2022-09-12T09:23:10.471Z,3.00
2022-09-12T09:24:10.414Z,3.20
2022-09-12T09:25:10.476Z,3.50
2022-09-12T09:26:10.423Z,2.80
2022-09-12T09:27:29.735Z,2.80
2022-09-12T09:28:10.409Z,3.10
2022-09-12T09:29:10.393Z,3.30
2022-09-12T09:30:10.361Z,3.00
2022-09-12T09:31:10.473Z,3.10
2022-09-12T09:32:10.361Z,3.20
2022-09-12T09:33:10.294Z,3.20
2022-09-12T09:34:10.339Z,3.10
2022-09-12T09:35:10.335Z,3.10
2022-09-12T09:36:10.255Z,3.00
2022-09-12T09:37:10.278Z,3.30
2022-09-12T09:38:10.232Z,3.00
2022-09-12T09:39:10.327Z,3.30
2022-09-12T09:40:10.291Z,2.80
2022-09-12T09:41:10.250Z,3.10
2022-09-12T09:42:10.230Z,2.80
2022-09-12T09:43:10.181Z,2.90
2022-09-12T09:44:10.179Z,2.70
2022-09-12T09:45:10.134Z,3.10
2022-09-12T09:46:10.315Z,3.00
2022-09-12T09:47:10.144Z,2.80
2022-09-12T09:48:11.074Z,3.10
2022-09-12T09:49:10.100Z,2.80
2022-09-12T09:50:10.058Z,3.10
2022-09-12T09:51:10.126Z,2.50
2022-09-12T09:52:10.036Z,2.70
2022-09-12T09:53:10.059Z,2.70
2022-09-12T09:54:10.002Z,2.70
2022-09-12T09:55:10.002Z,2.80
2022-09-12T09:56:09.980Z,2.80
2022-09-12T09:57:10.009Z,2.60
2022-09-12T09:58:09.978Z,3.10
2022-09-12T09:59:09.993Z,2.60
2022-09-12T10:00:09.920Z,2.80
2022-09-12T10:01:09.984Z,3.00
2022-09-12T10:02:09.989Z,2.90
2022-09-12T10:03:13.540Z,3.00
2022-09-12T10:04:09.886Z,2.80
2022-09-12T10:05:09.876Z,2.50
2022-09-12T10:06:09.846Z,3.40
2022-09-12T10:07:09.908Z,3.30
2022-09-12T10:08:09.833Z,3.00
2022-09-12T10:09:09.871Z,2.60
2022-09-12T10:10:09.903Z,2.60
2022-09-12T10:11:09.805Z,2.70
2022-09-12T10:12:09.769Z,2.60
2022-09-12T10:13:09.773Z,2.70
2022-09-12T10:14:09.785Z,2.80
2022-09-12T10:15:09.794Z,2.50
2022-09-12T10:16:09.825Z,2.80
2022-09-12T10:17:09.724Z,2.80
2022-09-12T10:18:09.693Z,2.50
2022-09-12T10:19:09.696Z,2.80
2022-09-12T10:20:21.194Z,2.60
2022-09-12T10:21:09.745Z,2.80
2022-09-12T10:22:09.674Z,2.50
2022-09-12T10:23:09.654Z,3.00
2022-09-12T10:24:09.625Z,3.10
2022-09-12T10:25:09.637Z,2.60
2022-09-12T10:26:09.658Z,2.50
2022-09-12T10:27:09.619Z,2.70
2022-09-12T10:28:09.563Z,2.60
2022-09-12T10:29:09.557Z,2.50
2022-09-12T10:30:09.523Z,2.90
2022-09-12T10:31:09.617Z,2.50
2022-09-12T10:32:09.545Z,2.60
2022-09-12T10:33:09.616Z,2.50
2022-09-12T10:34:09.533Z,2.50
2022-09-12T10:35:09.529Z,2.60
2022-09-12T10:36:09.465Z,2.60
2022-09-12T10:37:09.482Z,2.50
2022-09-12T10:38:09.440Z,2.70
2022-09-12T10:39:09.424Z,2.70
2022-09-12T10:40:09.518Z,2.60
2022-09-12T10:41:09.405Z,3.00
2022-09-12T10:42:10.162Z,2.90
2022-09-12T10:43:09.366Z,2.40
2022-09-12T10:44:09.362Z,2.50
2022-09-12T10:45:09.338Z,2.20
2022-09-12T10:46:09.389Z,2.30
2022-09-12T10:47:09.417Z,2.40
2022-09-12T10:48:09.301Z,2.20
2022-09-12T10:49:09.372Z,2.20
2022-09-12T10:50:09.283Z,2.30
2022-09-12T10:51:09.280Z,2.40
2022-09-12T10:52:09.286Z,2.20
2022-09-12T10:53:09.284Z,2.20
2022-09-12T10:54:09.235Z,2.10
2022-09-12T10:55:09.213Z,2.30
2022-09-12T10:56:09.190Z,2.30
2022-09-12T10:57:09.182Z,2.70
2022-09-12T10:58:09.245Z,2.50
2022-09-12T10:59:09.231Z,2.30
2022-09-12T11:00:10.096Z,2.30
2022-09-12T11:01:09.144Z,2.20
2022-09-12T11:02:09.206Z,2.00
2022-09-12T11:03:09.114Z,2.30
2022-09-12T11:04:09.128Z,2.10
2022-09-12T11:05:09.212Z,2.10
2022-09-12T11:06:09.067Z,2.30
2022-09-12T11:07:09.067Z,2.00
2022-09-12T11:08:09.059Z,2.40
2022-09-12T11:09:09.154Z,2.20
2022-09-12T11:10:09.074Z,2.40
2022-09-12T11:11:09.099Z,2.20
2022-09-12T11:12:09.023Z,2.30
2022-09-12T11:13:09.015Z,2.40
2022-09-12T11:14:08.963Z,2.40
2022-09-12T11:15:08.982Z,2.60
2022-09-12T11:16:09.010Z,2.50
2022-09-12T11:17:13.265Z,2.30
2022-09-12T11:18:08.891Z,2.30
2022-09-12T11:19:08.920Z,2.30
2022-09-12T11:20:08.868Z,2.10
2022-09-12T11:21:08.973Z,2.20
2022-09-12T11:22:08.896Z,2.40
2022-09-12T11:23:08.861Z,2.60
2022-09-12T11:24:08.826Z,2.70
2022-09-12T11:25:08.862Z,2.60
2022-09-12T11:26:08.802Z,2.50
2022-09-12T11:27:08.809Z,2.50
2022-09-12T11:28:08.797Z,2.10
2022-09-12T11:29:08.789Z,2.50
2022-09-12T11:30:08.729Z,2.50
2022-09-12T11:31:08.827Z,2.20
2022-09-12T11:32:08.717Z,3.10
2022-09-12T11:33:08.767Z,2.60
2022-09-12T11:34:08.680Z,2.20
2022-09-12T11:35:08.686Z,2.50
2022-09-12T11:36:08.669Z,2.20
2022-09-12T11:37:10.946Z,2.10
2022-09-12T11:38:08.718Z,2.70
2022-09-12T11:39:08.653Z,2.40
2022-09-12T11:40:08.697Z,2.20
2022-09-12T11:41:08.620Z,2.30
2022-09-12T11:42:08.572Z,2.30
2022-09-12T11:43:08.615Z,2.90
2022-09-12T11:44:08.655Z,2.40
2022-09-12T11:45:08.561Z,2.40
2022-09-12T11:46:08.574Z,2.50
2022-09-12T11:47:08.558Z,2.30
2022-09-12T11:48:08.532Z,1.90
2022-09-12T11:49:08.548Z,2.10
2022-09-12T11:50:08.502Z,2.00
2022-09-12T11:51:08.520Z,2.20
2022-09-12T11:52:08.441Z,2.50
2022-09-12T11:53:08.528Z,2.40
2022-09-12T11:54:08.434Z,2.40
2022-09-12T11:55:08.558Z,2.50
2022-09-12T11:56:08.400Z,2.30
2022-09-12T11:57:08.429Z,2.20
2022-09-12T11:58:08.370Z,2.50
2022-09-12T11:59:08.366Z,2.40
2022-09-12T12:00:08.407Z,2.20
2022-09-12T12:01:08.387Z,2.10
2022-09-12T12:02:08.395Z,2.10
2022-09-12T12:03:08.412Z,2.40
2022-09-12T12:04:08.326Z,2.10
2022-09-12T12:05:08.291Z,2.10
2022-09-12T12:06:08.340Z,2.20
2022-09-12T12:07:08.317Z,2.30
2022-09-12T12:08:08.232Z,2.40
2022-09-12T12:09:08.266Z,2.40
2022-09-12T12:10:08.210Z,2.20
2022-09-12T12:11:08.213Z,2.20
2022-09-12T12:12:08.222Z,2.10
2022-09-12T12:13:13.259Z,2.00
2022-09-12T12:14:08.182Z,2.00
2022-09-12T12:15:08.153Z,2.00
2022-09-12T12:16:08.257Z,2.20
2022-09-12T12:17:08.152Z,2.00
2022-09-12T12:18:08.163Z,1.60
2022-09-12T12:19:10.733Z,2.00
2022-09-12T12:20:08.869Z,1.80
2022-09-12T12:21:08.100Z,2.10
2022-09-12T12:22:08.048Z,2.10
2022-09-12T12:23:08.051Z,2.20
2022-09-12T12:24:08.046Z,1.90
2022-09-12T12:25:08.099Z,2.00
2022-09-12T12:26:08.031Z,2.10
2022-09-12T12:27:07.999Z,1.90
2022-09-12T12:28:08.037Z,1.90
2022-09-12T12:29:08.013Z,1.70
2022-09-12T12:30:07.966Z,1.70
2022-09-12T12:31:08.070Z,1.90
2022-09-12T12:32:08.030Z,1.70
2022-09-12T12:33:07.942Z,1.80
2022-09-12T12:34:07.912Z,1.80
2022-09-12T12:35:07.942Z,1.60
2022-09-12T12:36:07.871Z,1.80
2022-09-12T12:37:08.651Z,1.60
2022-09-12T12:38:07.833Z,2.00
2022-09-12T12:39:07.862Z,1.60
2022-09-12T12:40:07.873Z,1.40
2022-09-12T12:41:07.809Z,1.70
2022-09-12T12:42:07.786Z,1.80
2022-09-12T12:43:07.836Z,1.80
2022-09-12T12:44:07.785Z,2.00
2022-09-12T12:45:07.796Z,1.70
2022-09-12T12:46:07.804Z,1.60
2022-09-12T12:47:07.741Z,1.50
2022-09-12T12:48:08.360Z,1.60
2022-09-12T12:49:07.776Z,1.60
2022-09-12T12:50:07.843Z,1.60
2022-09-12T12:51:07.704Z,1.60
2022-09-12T12:52:07.684Z,1.40
2022-09-12T12:53:07.749Z,1.40
2022-09-12T12:54:12.372Z,1.60
2022-09-12T12:55:07.655Z,1.50
2022-09-12T12:56:07.638Z,1.50
2022-09-12T12:57:07.634Z,1.50
2022-09-12T12:58:07.588Z,1.60
2022-09-12T12:59:07.591Z,1.30
2022-09-12T13:00:07.810Z,1.60
2022-09-12T13:01:07.648Z,1.70
2022-09-12T13:02:07.706Z,1.60
2022-09-12T13:03:07.760Z,1.60
2022-09-12T13:04:07.506Z,1.60
2022-09-12T13:05:07.486Z,1.40
2022-09-12T13:06:07.564Z,1.50
2022-09-12T13:07:08.381Z,1.30
2022-09-12T13:08:07.457Z,1.60
2022-09-12T13:09:07.434Z,1.80
2022-09-12T13:10:07.482Z,1.40
2022-09-12T13:11:07.505Z,1.30
2022-09-12T13:12:07.457Z,1.60
2022-09-12T13:13:07.391Z,1.70
2022-09-12T13:14:07.418Z,1.40
2022-09-12T13:15:07.378Z,1.40
2022-09-12T13:16:07.438Z,1.40
2022-09-12T13:17:07.352Z,1.40
2022-09-12T13:18:07.403Z,1.50
2022-09-12T13:19:07.335Z,1.50
2022-09-12T13:20:26.591Z,1.40